createdAt,value
2018-05-24T00:00:49.521Z,36.40
2018-05-24T00:03:19.585Z,36.90
2018-05-24T00:05:49.013Z,36.70
2018-05-24T00:08:20.033Z,36.10
2018-05-24T00:10:49.549Z,36.60
2018-05-24T00:13:19.107Z,37.60
2018-05-24T00:15:48.753Z,37.10
2018-05-24T00:18:18.454Z,38.00
2018-05-24T00:20:48.421Z,38.10
2018-05-24T00:23:19.537Z,37.60
2018-05-24T00:25:50.039Z,37.50
2018-05-24T00:28:20.224Z,38.40
2018-05-24T00:30:49.737Z,38.80
2018-05-24T00:33:19.867Z,39.50
2018-05-24T00:35:49.694Z,40.20
2018-05-24T00:38:19.440Z,40.90
2018-05-24T00:40:49.375Z,40.10
2018-05-24T00:43:20.173Z,41.60
2018-05-24T00:45:49.479Z,42.40
2018-05-24T00:48:18.904Z,42.20
2018-05-24T00:50:49.379Z,42.80
2018-05-24T00:53:19.141Z,42.90
2018-05-24T00:55:48.921Z,43.20
2018-05-24T00:58:20.104Z,43.60
2018-05-24T01:00:49.575Z,44.50
2018-05-24T01:03:19.174Z,44.30
2018-05-24T01:05:48.658Z,44.00
2018-05-24T01:08:18.580Z,44.30
2018-05-24T01:10:48.195Z,44.10
2018-05-24T01:13:17.784Z,44.40
2018-05-24T01:15:47.279Z,44.50
2018-05-24T01:18:18.224Z,44.80
2018-05-24T01:20:48.517Z,45.00
2018-05-24T01:23:22.921Z,44.30
2018-05-24T01:25:53.800Z,44.30
2018-05-24T01:28:26.683Z,44.30
2018-05-24T01:30:56.347Z,44.90
2018-05-24T01:33:27.018Z,45.00
2018-05-24T01:35:56.641Z,45.20
2018-05-24T01:38:26.823Z,44.30
2018-05-24T01:40:56.459Z,44.30
2018-05-24T01:43:25.815Z,45.30
2018-05-24T01:45:55.181Z,44.20
2018-05-24T01:48:25.190Z,44.30
2018-05-24T01:50:55.450Z,45.10
2018-05-24T01:53:26.151Z,45.00
2018-05-24T01:55:55.726Z,44.60
2018-05-24T01:58:25.255Z,44.20
2018-05-24T02:00:56.236Z,44.20
2018-05-24T02:03:25.902Z,44.90
2018-05-24T02:05:55.584Z,44.90
2018-05-24T02:08:26.054Z,44.90
2018-05-24T02:10:55.575Z,44.80
2018-05-24T02:13:25.059Z,44.70
2018-05-24T02:15:54.552Z,45.70
2018-05-24T02:18:23.976Z,44.50
2018-05-24T02:20:53.419Z,45.60
2018-05-24T02:23:23.249Z,44.90
2018-05-24T02:25:54.818Z,45.60
2018-05-24T02:28:24.553Z,46.60
2018-05-24T02:30:54.161Z,46.60
2018-05-24T02:33:23.699Z,47.30
2018-05-24T02:35:53.587Z,47.40
2018-05-24T02:38:23.673Z,48.00
2018-05-24T02:40:53.342Z,48.50
2018-05-24T02:43:22.818Z,48.70
2018-05-24T02:45:52.400Z,48.70
2018-05-24T02:48:22.266Z,49.20
2018-05-24T02:50:52.664Z,50.10
2018-05-24T02:53:21.908Z,50.70
2018-05-24T02:55:51.756Z,50.30
2018-05-24T02:58:21.329Z,50.90
2018-05-24T03:00:51.703Z,51.70
2018-05-24T03:03:21.254Z,51.70
2018-05-24T03:05:52.408Z,52.30
2018-05-24T03:08:22.377Z,52.20
2018-05-24T03:10:52.023Z,52.30
2018-05-24T03:13:22.762Z,52.80
2018-05-24T03:15:52.639Z,52.90
2018-05-24T03:18:22.539Z,53.40
2018-05-24T03:20:51.983Z,53.70
2018-05-24T03:23:22.160Z,53.60
2018-05-24T03:25:51.749Z,54.00
2018-05-24T03:28:22.051Z,54.00
2018-05-24T03:30:52.004Z,54.10
2018-05-24T03:33:23.829Z,54.60
2018-05-24T03:35:54.232Z,54.50
2018-05-24T03:38:23.738Z,53.90
2018-05-24T03:40:53.015Z,53.90
2018-05-24T03:43:23.328Z,54.40
2018-05-24T03:45:53.011Z,54.40
2018-05-24T03:48:22.629Z,54.80
2018-05-24T03:50:52.445Z,55.10
2018-05-24T03:53:22.326Z,55.20
2018-05-24T03:55:51.813Z,55.20
2018-05-24T03:58:22.336Z,54.70
2018-05-24T04:01:03.201Z,54.60
2018-05-24T04:03:45.251Z,54.80
2018-05-24T04:06:14.622Z,54.70
2018-05-24T04:08:43.972Z,54.40
2018-05-24T04:11:13.640Z,54.60
2018-05-24T04:13:43.269Z,54.70
2018-05-24T04:16:12.898Z,55.30
2018-05-24T04:18:43.565Z,55.30
2018-05-24T04:21:12.982Z,55.20
2018-05-24T04:23:43.903Z,55.50
2018-05-24T04:26:13.856Z,55.40
2018-05-24T04:28:44.369Z,55.80
2018-05-24T04:31:13.712Z,55.80
2018-05-24T04:34:01.054Z,56.80
2018-05-24T04:36:31.809Z,57.90
2018-05-24T04:39:01.548Z,57.30
2018-05-24T04:41:31.195Z,57.40
2018-05-24T04:44:03.111Z,57.10
2018-05-24T04:46:33.362Z,57.20
2018-05-24T04:49:03.142Z,57.00
2018-05-24T04:51:33.277Z,56.70
2018-05-24T04:54:25.086Z,56.60
2018-05-24T04:56:54.569Z,56.60
2018-05-24T04:59:25.014Z,57.20
2018-05-24T05:01:56.189Z,57.00
2018-05-24T05:04:26.237Z,57.10
2018-05-24T05:06:56.076Z,57.30
2018-05-24T05:09:26.123Z,57.10
2018-05-24T05:11:57.819Z,57.30
2018-05-24T05:14:27.376Z,57.20
2018-05-24T05:16:56.951Z,56.80
2018-05-24T05:19:26.135Z,57.20
2018-05-24T05:21:55.997Z,57.60
2018-05-24T05:24:25.702Z,58.50
2018-05-24T05:26:57.353Z,58.60
2018-05-24T05:29:27.005Z,58.50
2018-05-24T05:31:57.088Z,58.30
2018-05-24T05:34:27.845Z,57.30
2018-05-24T05:36:57.921Z,56.70
2018-05-24T05:39:28.643Z,54.80
2018-05-24T05:41:58.225Z,54.80
2018-05-24T05:44:27.810Z,55.60
2018-05-24T05:46:58.239Z,53.80
2018-05-24T05:49:29.054Z,53.70
2018-05-24T05:51:59.543Z,53.80
2018-05-24T05:54:30.063Z,51.10
2018-05-24T05:57:00.962Z,51.80
2018-05-24T05:59:31.105Z,51.40
2018-05-24T06:02:00.758Z,51.20
2018-05-24T06:04:30.336Z,50.60
2018-05-24T06:07:00.487Z,51.20
2018-05-24T06:09:30.147Z,50.40
2018-05-24T06:11:59.689Z,51.30
2018-05-24T06:14:29.525Z,51.60
2018-05-24T06:16:59.297Z,51.90
2018-05-24T06:19:32.699Z,52.20
2018-05-24T06:22:02.751Z,51.30
2018-05-24T06:24:32.418Z,50.60
2018-05-24T06:27:01.959Z,51.40
2018-05-24T06:29:32.733Z,52.10
2018-05-24T06:32:02.300Z,52.00
2018-05-24T06:34:32.974Z,51.30
2018-05-24T06:37:02.545Z,50.50
2018-05-24T06:39:32.098Z,50.50
2018-05-24T06:42:01.932Z,50.00
2018-05-24T06:44:32.504Z,51.10
2018-05-24T06:47:01.862Z,51.10
2018-05-24T06:49:32.580Z,51.00
2018-05-24T06:52:02.642Z,50.60
2018-05-24T06:54:32.123Z,50.50
2018-05-24T06:57:02.288Z,51.40
2018-05-24T06:59:31.711Z,51.30
2018-05-24T07:02:02.734Z,52.70
2018-05-24T07:04:32.259Z,52.50
2018-05-24T07:07:01.954Z,52.60
2018-05-24T07:09:31.531Z,52.90
2018-05-24T07:12:01.735Z,53.70
2018-05-24T07:14:31.170Z,53.60
2018-05-24T07:17:01.507Z,54.00
2018-05-24T07:19:31.418Z,53.10
2018-05-24T07:22:01.334Z,53.30
2018-05-24T07:27:06.336Z,54.10
2018-05-24T07:29:35.690Z,54.40
2018-05-24T07:32:04.981Z,54.50
2018-05-24T07:34:35.325Z,54.00
2018-05-24T07:37:05.032Z,54.30
2018-05-24T07:39:34.766Z,53.90
2018-05-24T07:42:04.631Z,53.70
2018-05-24T07:44:35.196Z,53.50
2018-05-24T07:47:06.948Z,53.70
2018-05-24T07:49:36.652Z,53.70
2018-05-24T07:52:05.969Z,53.80
2018-05-24T07:54:35.340Z,53.30
2018-05-24T07:57:05.046Z,52.80
2018-05-24T07:59:34.783Z,53.00
2018-05-24T08:02:05.434Z,51.90
2018-05-24T08:04:35.189Z,51.70
2018-05-24T08:07:04.879Z,52.30
2018-05-24T08:09:34.556Z,52.60
2018-05-24T08:12:05.734Z,51.60
2018-05-24T08:14:35.347Z,51.50
2018-05-24T08:17:06.326Z,52.20
2018-05-24T08:19:36.298Z,52.00
2018-05-24T08:22:05.675Z,52.60
2018-05-24T08:24:35.459Z,52.80
2018-05-24T08:27:05.247Z,52.60
2018-05-24T08:29:36.138Z,52.90
2018-05-24T08:32:08.239Z,54.30
2018-05-24T08:34:37.867Z,53.50
2018-05-24T08:37:07.388Z,53.70
2018-05-24T08:39:38.072Z,53.90
2018-05-24T08:42:07.607Z,53.70
2018-05-24T08:44:37.177Z,54.40
2018-05-24T08:47:09.226Z,54.30
2018-05-24T08:49:39.949Z,54.50
2018-05-24T08:52:09.275Z,54.60
2018-05-24T08:54:38.831Z,55.00
2018-05-24T08:57:09.654Z,54.90
2018-05-24T08:59:43.787Z,54.80
2018-05-24T09:02:13.999Z,54.90
2018-05-24T09:04:43.506Z,55.20
2018-05-24T09:07:13.173Z,55.40
2018-05-24T09:09:43.046Z,55.40
2018-05-24T09:12:12.867Z,55.70
2018-05-24T09:14:42.559Z,56.10
2018-05-24T09:17:13.041Z,56.60
2018-05-24T09:19:44.647Z,56.20
2018-05-24T09:22:15.262Z,57.20
2018-05-24T09:24:44.853Z,57.60
2018-05-24T09:27:14.828Z,56.60
2018-05-24T09:29:45.621Z,57.10
2018-05-24T09:32:15.021Z,57.70
2018-05-24T09:34:47.094Z,57.60
2018-05-24T09:37:16.719Z,58.00
2018-05-24T09:39:46.379Z,58.50
2018-05-24T09:42:15.750Z,58.90
2018-05-24T09:44:47.875Z,60.00
2018-05-24T09:47:20.386Z,60.10
2018-05-24T09:49:50.058Z,60.50
2018-05-24T09:52:19.592Z,60.00
2018-05-24T09:54:49.123Z,60.90
2018-05-24T09:57:18.911Z,61.00
2018-05-24T09:59:49.114Z,61.00
2018-05-24T10:02:18.731Z,60.90
2018-05-24T10:04:49.976Z,62.00
2018-05-24T10:07:19.493Z,62.80
2018-05-24T10:09:49.944Z,62.50
2018-05-24T10:12:20.470Z,62.30
2018-05-24T10:14:50.349Z,62.30
2018-05-24T10:17:19.745Z,62.80
2018-05-24T10:19:50.057Z,63.30
2018-05-24T10:22:19.294Z,63.30
2018-05-24T10:24:49.138Z,63.40
2018-05-24T10:27:18.961Z,63.90
2018-05-24T10:29:49.668Z,63.90
2018-05-24T10:32:19.055Z,64.40
2018-05-24T10:34:48.500Z,65.20
2018-05-24T10:37:18.095Z,65.50
2018-05-24T10:39:47.734Z,65.70
2018-05-24T10:42:17.088Z,66.20
2018-05-24T10:44:48.696Z,67.20
2018-05-24T10:47:19.236Z,68.30
2018-05-24T10:49:50.885Z,68.10
2018-05-24T10:52:21.409Z,68.30
2018-05-24T10:54:51.106Z,68.70
2018-05-24T10:57:20.608Z,69.10
2018-05-24T10:59:49.978Z,69.60
2018-05-24T11:02:19.635Z,69.70
2018-05-24T11:04:49.567Z,69.30
2018-05-24T11:07:19.467Z,69.30
2018-05-24T11:09:50.454Z,68.90
2018-05-24T11:12:19.875Z,69.10
2018-05-24T11:14:49.776Z,69.20
2018-05-24T11:17:20.353Z,69.80
2018-05-24T11:19:52.520Z,70.80
2018-05-24T11:22:22.036Z,70.60
2018-05-24T11:24:51.461Z,70.30
2018-05-24T11:27:20.435Z,70.80
2018-05-24T11:29:50.829Z,71.00
2018-05-24T11:32:22.927Z,71.00
2018-05-24T11:34:52.547Z,71.60
2018-05-24T11:37:22.151Z,71.60
2018-05-24T11:39:51.876Z,71.40
2018-05-24T11:42:22.811Z,71.60
2018-05-24T11:44:52.260Z,71.70
2018-05-24T11:47:21.677Z,71.30
2018-05-24T11:49:51.896Z,71.20
2018-05-24T11:52:21.288Z,71.20
2018-05-24T11:54:50.882Z,71.40
2018-05-24T11:57:20.544Z,71.30
2018-05-24T11:59:50.122Z,71.70
2018-05-24T12:02:19.882Z,71.40
2018-05-24T12:04:49.235Z,71.80
2018-05-24T12:07:18.583Z,72.00
2018-05-24T12:09:48.311Z,71.70
2018-05-24T12:12:17.854Z,72.00
2018-05-24T12:14:47.460Z,72.50
2018-05-24T12:17:19.630Z,72.90
2018-05-24T12:19:49.245Z,72.90
2018-05-24T12:22:18.867Z,72.60
2018-05-24T12:27:27.727Z,73.20
2018-05-24T12:30:13.690Z,73.40
2018-05-24T12:32:44.384Z,74.00
2018-05-24T12:35:14.161Z,73.90
2018-05-24T12:37:43.960Z,73.50
2018-05-24T12:44:19.256Z,73.20
2018-05-24T12:46:49.745Z,73.30
2018-05-24T12:49:20.141Z,73.40
2018-05-24T12:52:04.796Z,73.30
2018-05-24T12:54:34.750Z,73.90
2018-05-24T12:57:04.388Z,73.90
2018-05-24T12:59:36.911Z,73.90
2018-05-24T13:02:08.597Z,74.70
2018-05-24T13:04:38.655Z,74.70
2018-05-24T13:07:08.333Z,74.80
2018-05-24T13:09:38.475Z,74.30
2018-05-24T13:12:08.019Z,74.30
2018-05-24T13:14:37.669Z,74.00
2018-05-24T13:17:08.021Z,74.50
2018-05-24T13:19:37.828Z,74.20
2018-05-24T13:22:07.346Z,74.00
2018-05-24T13:24:36.924Z,74.20
2018-05-24T13:27:06.389Z,74.30
2018-05-24T13:29:35.990Z,74.30
2018-05-24T13:32:05.460Z,74.60
2018-05-24T13:34:35.259Z,74.40
2018-05-24T13:37:04.423Z,74.60
2018-05-24T13:39:37.177Z,75.20
2018-05-24T13:42:06.908Z,74.70
2018-05-24T13:44:37.299Z,75.80
2018-05-24T13:47:08.556Z,75.10
2018-05-24T13:49:37.953Z,75.00
2018-05-24T13:52:08.101Z,74.20
2018-05-24T13:54:37.322Z,74.40
2018-05-24T13:57:07.748Z,75.00
2018-05-24T13:59:39.892Z,73.80
2018-05-24T14:02:09.277Z,73.90
2018-05-24T14:04:38.747Z,73.60
2018-05-24T14:07:08.214Z,73.40
2018-05-24T14:09:39.588Z,73.90
2018-05-24T14:12:09.165Z,73.80
2018-05-24T14:14:38.519Z,73.80
2018-05-24T14:17:08.861Z,73.60
2018-05-24T14:19:39.498Z,73.60
2018-05-24T14:22:09.494Z,73.70
2018-05-24T14:24:39.305Z,73.20
2018-05-24T14:27:09.164Z,72.50
2018-05-24T14:29:40.235Z,73.60
2018-05-24T14:32:13.697Z,72.60
2018-05-24T14:34:44.207Z,72.70
2018-05-24T14:37:15.847Z,71.90
2018-05-24T14:39:45.272Z,72.20
2018-05-24T14:42:15.021Z,71.50
2018-05-24T14:44:44.171Z,72.30
2018-05-24T14:47:14.098Z,72.80
2018-05-24T14:49:43.847Z,73.50
2018-05-24T14:52:13.200Z,73.00
2018-05-24T14:54:42.805Z,72.60
2018-05-24T14:57:15.366Z,71.40
2018-05-24T14:59:44.986Z,71.40
2018-05-24T15:02:13.954Z,71.60
2018-05-24T15:04:43.935Z,71.00
2018-05-24T15:07:15.550Z,71.50
2018-05-24T15:09:46.073Z,71.50
2018-05-24T15:12:16.947Z,71.60
2018-05-24T15:14:46.697Z,72.10
2018-05-24T15:17:16.603Z,71.60
2018-05-24T15:19:46.028Z,72.30
2018-05-24T15:22:15.560Z,72.10
2018-05-24T15:24:46.675Z,71.70
2018-05-24T15:27:16.201Z,71.10
2018-05-24T15:29:45.692Z,71.50
2018-05-24T15:32:14.842Z,71.80
2018-05-24T15:34:45.475Z,72.40
2018-05-24T15:37:16.796Z,72.40
2018-05-24T15:39:46.591Z,72.30
2018-05-24T15:42:18.768Z,72.00
2018-05-24T15:44:50.251Z,72.70
2018-05-24T15:47:20.520Z,71.90
2018-05-24T15:49:50.544Z,72.20
2018-05-24T15:52:20.151Z,71.80
2018-05-24T15:54:49.586Z,71.30
2018-05-24T15:57:20.403Z,71.80
2018-05-24T15:59:50.490Z,71.70
2018-05-24T16:02:20.173Z,71.50
2018-05-24T16:04:49.853Z,71.30
2018-05-24T16:07:20.513Z,71.70
2018-05-24T16:09:50.273Z,71.70
2018-05-24T16:12:20.269Z,71.90
2018-05-24T16:14:50.697Z,71.20
2018-05-24T16:17:20.277Z,70.50
2018-05-24T16:19:49.734Z,70.80
2018-05-24T16:22:19.395Z,70.60
2018-05-24T16:24:48.849Z,70.40
2018-05-24T16:27:19.365Z,70.20
2018-05-24T16:29:49.260Z,69.70
2018-05-24T16:32:18.988Z,69.70
2018-05-24T16:34:49.134Z,70.00
2018-05-24T16:37:18.830Z,70.30
2018-05-24T16:39:49.906Z,69.90
2018-05-24T16:42:19.533Z,70.00
2018-05-24T16:44:48.953Z,69.60
2018-05-24T16:47:18.629Z,68.50
2018-05-24T16:49:48.298Z,68.40
2018-05-24T16:52:17.862Z,68.10
2018-05-24T16:54:47.408Z,69.10
2018-05-24T16:57:19.569Z,68.80
2018-05-24T16:59:49.089Z,69.30
2018-05-24T17:02:18.806Z,69.30
2018-05-24T17:04:49.639Z,68.60
2018-05-24T17:07:19.741Z,69.60
2018-05-24T17:09:49.551Z,69.50
2018-05-24T17:12:18.959Z,69.00
2018-05-24T17:14:49.153Z,69.70
2018-05-24T17:17:18.724Z,69.40
2018-05-24T17:19:49.045Z,69.30
2018-05-24T17:22:18.663Z,68.10
2018-05-24T17:24:48.324Z,68.00
2018-05-24T17:27:18.959Z,69.30
2018-05-24T17:29:48.403Z,69.80
2018-05-24T17:32:18.900Z,68.60
2018-05-24T17:34:48.862Z,68.20
2018-05-24T17:37:18.527Z,68.10
2018-05-24T17:39:48.207Z,68.40
2018-05-24T17:42:18.637Z,68.50
2018-05-24T17:44:49.464Z,67.90
2018-05-24T17:47:19.727Z,67.50
2018-05-24T17:49:53.510Z,66.90
2018-05-24T17:52:22.975Z,66.50
2018-05-24T17:54:52.324Z,66.80
2018-05-24T17:57:22.115Z,66.40
2018-05-24T17:59:56.171Z,66.40
2018-05-24T18:02:26.305Z,66.60
2018-05-24T18:04:56.751Z,66.40
2018-05-24T18:07:26.476Z,66.30
2018-05-24T18:09:56.262Z,65.80
2018-05-24T18:12:26.015Z,65.70
2018-05-24T18:14:56.794Z,65.70
2018-05-24T18:17:26.492Z,65.80
2018-05-24T18:19:57.023Z,66.70
2018-05-24T18:22:27.225Z,67.40
2018-05-24T18:24:57.049Z,66.40
2018-05-24T18:27:29.989Z,65.80
2018-05-24T18:30:00.728Z,66.40
2018-05-24T18:32:33.553Z,65.50
2018-05-24T18:35:04.833Z,62.50
2018-05-24T18:37:35.647Z,62.50
2018-05-24T18:40:07.154Z,60.40
2018-05-24T18:42:38.668Z,55.20
2018-05-24T18:45:08.355Z,50.10
2018-05-24T18:47:39.504Z,50.10
2018-05-24T18:50:10.561Z,48.40
2018-05-24T18:52:41.252Z,48.30
2018-05-24T18:55:12.032Z,45.70
2018-05-24T18:57:42.393Z,46.40
2018-05-24T19:00:12.318Z,46.30
2018-05-24T19:02:41.969Z,45.20
2018-05-24T19:05:11.366Z,45.90
2018-05-24T19:07:41.442Z,45.30
2018-05-24T19:10:27.527Z,45.20
2018-05-24T19:12:57.503Z,44.30
2018-05-24T19:15:27.030Z,43.40
2018-05-24T19:17:57.059Z,45.70
2018-05-24T19:20:27.453Z,43.30
2018-05-24T19:22:57.850Z,42.90
2018-05-24T19:25:27.566Z,42.80
2018-05-24T19:27:57.157Z,44.40
2018-05-24T19:30:27.585Z,44.20
2018-05-24T19:32:57.983Z,44.40
2018-05-24T19:35:27.517Z,44.70
2018-05-24T19:37:57.057Z,44.90
2018-05-24T19:40:26.763Z,44.70
2018-05-24T19:42:57.134Z,46.40
2018-05-24T19:45:27.189Z,46.40
2018-05-24T19:47:57.285Z,47.80
2018-05-24T19:50:26.717Z,47.00
2018-05-24T19:52:55.903Z,46.20
2018-05-24T19:55:25.490Z,47.10
2018-05-24T19:57:54.784Z,47.40
2018-05-24T20:00:25.083Z,48.20
2018-05-24T20:02:56.686Z,47.70
2018-05-24T20:05:25.965Z,47.50
2018-05-24T20:07:55.326Z,48.50
2018-05-24T20:10:25.620Z,48.50
2018-05-24T20:12:55.887Z,49.10
2018-05-24T20:15:26.501Z,49.10
2018-05-24T20:17:57.350Z,48.00
2018-05-24T20:20:27.097Z,48.90
2018-05-24T20:22:56.634Z,48.70
2018-05-24T20:25:25.925Z,49.00
2018-05-24T20:27:56.004Z,48.00
2018-05-24T20:30:25.508Z,48.00
2018-05-24T20:32:54.949Z,47.80
2018-05-24T20:35:25.464Z,50.30
2018-05-24T20:37:55.112Z,50.40
2018-05-24T20:40:25.490Z,51.10
2018-05-24T20:42:54.777Z,51.10
2018-05-24T20:45:24.326Z,49.10
2018-05-24T20:47:54.047Z,51.20
2018-05-24T20:50:24.596Z,51.70
2018-05-24T20:52:54.195Z,50.00
2018-05-24T20:55:23.279Z,50.10
2018-05-24T20:57:54.013Z,53.60
2018-05-24T21:00:24.322Z,53.60
2018-05-24T21:02:53.963Z,54.90
2018-05-24T21:05:23.387Z,55.70
2018-05-24T21:07:52.899Z,53.80
2018-05-24T21:10:22.323Z,55.40
2018-05-24T21:12:51.895Z,55.20
2018-05-24T21:15:21.335Z,55.70
2018-05-24T21:17:51.025Z,55.00
2018-05-24T21:20:20.477Z,54.20
2018-05-24T21:22:51.197Z,55.40
2018-05-24T21:25:21.484Z,55.90
2018-05-24T21:27:51.085Z,55.90
2018-05-24T21:30:21.027Z,55.80
2018-05-24T21:32:50.661Z,54.40
2018-05-24T21:35:20.076Z,53.80
2018-05-24T21:37:50.824Z,55.20
2018-05-24T21:40:20.612Z,55.20
2018-05-24T21:42:51.093Z,54.50
2018-05-24T21:45:20.638Z,55.30
2018-05-24T21:47:50.396Z,54.30
2018-05-24T21:50:19.908Z,53.00
2018-05-24T21:52:49.467Z,54.50
2018-05-24T21:55:19.977Z,55.10
2018-05-24T21:57:49.604Z,54.90
2018-05-24T22:00:20.066Z,55.20
2018-05-24T22:02:50.452Z,55.20
2018-05-24T22:05:19.867Z,53.40
2018-05-24T22:07:49.158Z,54.80
2018-05-24T22:10:20.071Z,54.10
2018-05-24T22:12:49.759Z,55.50
2018-05-24T22:15:19.100Z,55.10
2018-05-24T22:17:48.550Z,55.30
2018-05-24T22:20:18.213Z,55.10
2018-05-24T22:22:47.836Z,54.10
2018-05-24T22:25:19.248Z,54.30
2018-05-24T22:27:48.855Z,54.30
2018-05-24T22:30:18.464Z,53.50
2018-05-24T22:32:48.050Z,54.10
2018-05-24T22:35:17.615Z,55.10
2018-05-24T22:37:47.142Z,55.10
2018-05-24T22:40:17.428Z,54.40
2018-05-24T22:42:48.083Z,55.60
2018-05-24T22:45:17.649Z,55.20
2018-05-24T22:47:46.907Z,55.30
2018-05-24T22:50:16.437Z,56.60
2018-05-24T22:52:45.763Z,56.60
2018-05-24T22:55:16.724Z,56.40
2018-05-24T22:57:46.238Z,56.60
2018-05-24T23:00:16.084Z,55.70
2018-05-24T23:02:45.807Z,54.70
2018-05-24T23:05:15.619Z,54.50
2018-05-24T23:07:45.002Z,54.70
2018-05-24T23:10:15.584Z,55.50
2018-05-24T23:12:45.881Z,54.10
2018-05-24T23:15:15.209Z,54.30
2018-05-24T23:17:45.004Z,55.50
2018-05-24T23:20:14.791Z,54.70
2018-05-24T23:22:44.626Z,55.00
2018-05-24T23:25:14.257Z,54.40
2018-05-24T23:27:43.861Z,55.30
2018-05-24T23:30:14.222Z,54.40
2018-05-24T23:32:43.867Z,54.40
2018-05-24T23:35:13.874Z,54.60
2018-05-24T23:37:43.332Z,53.90
2018-05-24T23:40:12.954Z,53.50
2018-05-24T23:42:42.890Z,55.00
2018-05-24T23:45:12.299Z,55.30
2018-05-24T23:47:42.240Z,54.10
2018-05-24T23:50:12.623Z,53.50
2018-05-24T23:52:42.226Z,53.50
2018-05-24T23:55:11.747Z,54.10
2018-05-24T23:57:41.343Z,55.10
